sensor_id;sensor_type;location;lat;lon;timestamp;temperature;humidity
70366;DHT22;57787;48.216;12.396;2022-10-13T00:00:26;12.00;88.10
70366;DHT22;57787;48.216;12.396;2022-10-13T00:05:23;11.90;88.60
70366;DHT22;57787;48.216;12.396;2022-10-13T00:07:52;11.90;89.10
70366;DHT22;57787;48.216;12.396;2022-10-13T00:10:19;11.90;88.70
70366;DHT22;57787;48.216;12.396;2022-10-13T00:12:45;11.90;88.60
70366;DHT22;57787;48.216;12.396;2022-10-13T00:15:12;11.90;88.70
70366;DHT22;57787;48.216;12.396;2022-10-13T00:17:40;11.90;88.50
70366;DHT22;57787;48.216;12.396;2022-10-13T00:20:07;11.90;88.80
70366;DHT22;57787;48.216;12.396;2022-10-13T00:22:34;11.90;88.60
70366;DHT22;57787;48.216;12.396;2022-10-13T00:25:01;11.90;88.90
70366;DHT22;57787;48.216;12.396;2022-10-13T00:27:27;11.90;88.70
70366;DHT22;57787;48.216;12.396;2022-10-13T00:29:54;11.90;89.30
70366;DHT22;57787;48.216;12.396;2022-10-13T00:32:21;11.90;89.40
70366;DHT22;57787;48.216;12.396;2022-10-13T00:34:47;11.90;89.50
70366;DHT22;57787;48.216;12.396;2022-10-13T00:37:14;11.90;89.50
70366;DHT22;57787;48.216;12.396;2022-10-13T00:39:41;11.90;89.60
70366;DHT22;57787;48.216;12.396;2022-10-13T00:42:11;11.90;89.80
70366;DHT22;57787;48.216;12.396;2022-10-13T00:47:27;11.90;89.80
70366;DHT22;57787;48.216;12.396;2022-10-13T00:49:56;11.90;89.60
70366;DHT22;57787;48.216;12.396;2022-10-13T00:52:22;11.90;89.40
70366;DHT22;57787;48.216;12.396;2022-10-13T00:54:50;11.90;89.60
70366;DHT22;57787;48.216;12.396;2022-10-13T00:57:18;11.90;89.50
70366;DHT22;57787;48.216;12.396;2022-10-13T00:59:48;11.90;89.30
70366;DHT22;57787;48.216;12.396;2022-10-13T01:02:15;11.90;89.30
70366;DHT22;57787;48.216;12.396;2022-10-13T01:04:44;11.90;89.50
70366;DHT22;57787;48.216;12.396;2022-10-13T01:07:15;11.90;89.50
70366;DHT22;57787;48.216;12.396;2022-10-13T01:09:42;11.90;89.40
70366;DHT22;57787;48.216;12.396;2022-10-13T01:14:47;11.90;89.10
70366;DHT22;57787;48.216;12.396;2022-10-13T01:17:17;11.90;89.40
70366;DHT22;57787;48.216;12.396;2022-10-13T01:22:38;11.80;89.30
70366;DHT22;57787;48.216;12.396;2022-10-13T01:27:44;11.80;89.50
70366;DHT22;57787;48.216;12.396;2022-10-13T01:30:18;11.80;89.50
70366;DHT22;57787;48.216;12.396;2022-10-13T01:38:15;11.80;89.40
70366;DHT22;57787;48.216;12.396;2022-10-13T01:43:20;11.70;89.40
70366;DHT22;57787;48.216;12.396;2022-10-13T01:45:59;11.70;89.30
70366;DHT22;57787;48.216;12.396;2022-10-13T01:48:27;11.70;89.30
70366;DHT22;57787;48.216;12.396;2022-10-13T01:50:54;11.70;89.10
70366;DHT22;57787;48.216;12.396;2022-10-13T01:53:23;11.70;88.90
70366;DHT22;57787;48.216;12.396;2022-10-13T01:55:51;11.70;89.10
70366;DHT22;57787;48.216;12.396;2022-10-13T01:58:19;11.60;89.20
70366;DHT22;57787;48.216;12.396;2022-10-13T02:01:02;11.50;89.00
70366;DHT22;57787;48.216;12.396;2022-10-13T02:03:35;11.50;89.30
70366;DHT22;57787;48.216;12.396;2022-10-13T02:08:38;11.50;89.30
70366;DHT22;57787;48.216;12.396;2022-10-13T02:11:18;11.50;89.30
70366;DHT22;57787;48.216;12.396;2022-10-13T02:13:51;11.50;89.60
70366;DHT22;57787;48.216;12.396;2022-10-13T02:16:19;11.50;89.50
70366;DHT22;57787;48.216;12.396;2022-10-13T02:18:56;11.50;89.70
70366;DHT22;57787;48.216;12.396;2022-10-13T02:21:23;11.50;89.90
70366;DHT22;57787;48.216;12.396;2022-10-13T02:23:50;11.50;89.70
70366;DHT22;57787;48.216;12.396;2022-10-13T02:26:17;11.40;89.60
70366;DHT22;57787;48.216;12.396;2022-10-13T02:28:44;11.40;89.50
70366;DHT22;57787;48.216;12.396;2022-10-13T02:31:12;11.40;89.40
70366;DHT22;57787;48.216;12.396;2022-10-13T02:33:39;11.40;89.30
70366;DHT22;57787;48.216;12.396;2022-10-13T02:36:05;11.30;89.10
70366;DHT22;57787;48.216;12.396;2022-10-13T02:38:32;11.30;89.10
70366;DHT22;57787;48.216;12.396;2022-10-13T02:40:59;11.30;88.90
70366;DHT22;57787;48.216;12.396;2022-10-13T02:43:27;11.20;88.70
70366;DHT22;57787;48.216;12.396;2022-10-13T02:45:54;11.20;88.70
70366;DHT22;57787;48.216;12.396;2022-10-13T02:48:21;11.10;88.60
70366;DHT22;57787;48.216;12.396;2022-10-13T02:50:47;11.00;88.70
70366;DHT22;57787;48.216;12.396;2022-10-13T02:53:14;10.90;88.20
70366;DHT22;57787;48.216;12.396;2022-10-13T02:55:42;10.80;88.10
70366;DHT22;57787;48.216;12.396;2022-10-13T02:58:08;10.80;88.20
70366;DHT22;57787;48.216;12.396;2022-10-13T03:00:35;10.70;88.20
70366;DHT22;57787;48.216;12.396;2022-10-13T03:03:05;10.60;88.20
70366;DHT22;57787;48.216;12.396;2022-10-13T03:05:32;10.50;88.10
70366;DHT22;57787;48.216;12.396;2022-10-13T03:07:59;10.50;88.00
70366;DHT22;57787;48.216;12.396;2022-10-13T03:10:26;10.40;88.10
70366;DHT22;57787;48.216;12.396;2022-10-13T03:12:57;10.30;88.10
70366;DHT22;57787;48.216;12.396;2022-10-13T03:15:24;10.30;88.10
70366;DHT22;57787;48.216;12.396;2022-10-13T03:17:50;10.20;88.20
70366;DHT22;57787;48.216;12.396;2022-10-13T03:20:17;10.20;88.50
70366;DHT22;57787;48.216;12.396;2022-10-13T03:22:44;10.10;88.40
70366;DHT22;57787;48.216;12.396;2022-10-13T03:25:15;10.10;88.50
70366;DHT22;57787;48.216;12.396;2022-10-13T03:27:42;10.00;88.60
70366;DHT22;57787;48.216;12.396;2022-10-13T03:30:09;10.00;88.60
70366;DHT22;57787;48.216;12.396;2022-10-13T03:32:36;10.00;88.70
70366;DHT22;57787;48.216;12.396;2022-10-13T03:35:03;10.00;88.70
70366;DHT22;57787;48.216;12.396;2022-10-13T03:37:32;10.00;89.10
70366;DHT22;57787;48.216;12.396;2022-10-13T03:39:59;10.00;89.30
70366;DHT22;57787;48.216;12.396;2022-10-13T03:42:27;10.00;89.30
70366;DHT22;57787;48.216;12.396;2022-10-13T03:44:56;10.00;89.30
70366;DHT22;57787;48.216;12.396;2022-10-13T03:47:23;10.00;89.30
70366;DHT22;57787;48.216;12.396;2022-10-13T03:49:53;10.00;89.50
70366;DHT22;57787;48.216;12.396;2022-10-13T03:52:20;9.90;89.30
70366;DHT22;57787;48.216;12.396;2022-10-13T03:54:49;9.90;89.10
70366;DHT22;57787;48.216;12.396;2022-10-13T03:57:15;9.80;88.80
70366;DHT22;57787;48.216;12.396;2022-10-13T03:59:42;9.80;88.60
70366;DHT22;57787;48.216;12.396;2022-10-13T04:02:09;9.70;88.50
70366;DHT22;57787;48.216;12.396;2022-10-13T04:04:36;9.60;88.30
70366;DHT22;57787;48.216;12.396;2022-10-13T04:07:06;9.50;88.20
70366;DHT22;57787;48.216;12.396;2022-10-13T04:09:33;9.50;88.30
70366;DHT22;57787;48.216;12.396;2022-10-13T04:11:59;9.40;88.20
70366;DHT22;57787;48.216;12.396;2022-10-13T04:14:28;9.30;88.40
70366;DHT22;57787;48.216;12.396;2022-10-13T04:16:54;9.30;88.20
70366;DHT22;57787;48.216;12.396;2022-10-13T04:19:21;9.20;88.50
70366;DHT22;57787;48.216;12.396;2022-10-13T04:21:48;9.10;88.70
70366;DHT22;57787;48.216;12.396;2022-10-13T04:24:20;9.10;88.70
70366;DHT22;57787;48.216;12.396;2022-10-13T04:26:48;9.00;89.00
70366;DHT22;57787;48.216;12.396;2022-10-13T04:29:14;8.90;88.70
70366;DHT22;57787;48.216;12.396;2022-10-13T04:31:43;8.90;88.80
70366;DHT22;57787;48.216;12.396;2022-10-13T04:34:18;8.90;88.80
70366;DHT22;57787;48.216;12.396;2022-10-13T04:36:48;8.80;88.90
70366;DHT22;57787;48.216;12.396;2022-10-13T04:39:18;8.80;89.30
70366;DHT22;57787;48.216;12.396;2022-10-13T04:41:45;8.80;89.60
70366;DHT22;57787;48.216;12.396;2022-10-13T04:44:18;8.90;89.90
70366;DHT22;57787;48.216;12.396;2022-10-13T04:46:45;8.90;90.30
70366;DHT22;57787;48.216;12.396;2022-10-13T04:49:12;9.00;90.60
70366;DHT22;57787;48.216;12.396;2022-10-13T04:51:40;9.10;90.90
70366;DHT22;57787;48.216;12.396;2022-10-13T04:54:07;9.20;91.40
70366;DHT22;57787;48.216;12.396;2022-10-13T04:56:34;9.20;91.40
70366;DHT22;57787;48.216;12.396;2022-10-13T04:59:03;9.30;91.50
70366;DHT22;57787;48.216;12.396;2022-10-13T05:01:34;9.30;91.70
70366;DHT22;57787;48.216;12.396;2022-10-13T05:04:02;9.40;91.90
70366;DHT22;57787;48.216;12.396;2022-10-13T05:06:32;9.40;91.90
70366;DHT22;57787;48.216;12.396;2022-10-13T05:09:00;9.50;91.90
70366;DHT22;57787;48.216;12.396;2022-10-13T05:11:27;9.50;92.00
70366;DHT22;57787;48.216;12.396;2022-10-13T05:13:54;9.60;92.00
70366;DHT22;57787;48.216;12.396;2022-10-13T05:16:21;9.60;91.90
70366;DHT22;57787;48.216;12.396;2022-10-13T05:18:48;9.70;91.90
70366;DHT22;57787;48.216;12.396;2022-10-13T05:21:17;9.70;91.90
70366;DHT22;57787;48.216;12.396;2022-10-13T05:23:44;9.70;91.80
70366;DHT22;57787;48.216;12.396;2022-10-13T05:26:12;9.80;91.80
70366;DHT22;57787;48.216;12.396;2022-10-13T05:31:18;9.80;91.90
70366;DHT22;57787;48.216;12.396;2022-10-13T05:33:45;9.80;91.90
70366;DHT22;57787;48.216;12.396;2022-10-13T05:36:14;9.90;91.90
70366;DHT22;57787;48.216;12.396;2022-10-13T05:38:42;9.90;91.70
70366;DHT22;57787;48.216;12.396;2022-10-13T05:41:10;9.90;91.60
70366;DHT22;57787;48.216;12.396;2022-10-13T05:43:38;9.90;91.50
70366;DHT22;57787;48.216;12.396;2022-10-13T05:46:05;10.00;91.50
70366;DHT22;57787;48.216;12.396;2022-10-13T05:48:32;10.00;91.50
70366;DHT22;57787;48.216;12.396;2022-10-13T05:51:15;10.10;91.60
70366;DHT22;57787;48.216;12.396;2022-10-13T05:53:44;10.10;91.60
70366;DHT22;57787;48.216;12.396;2022-10-13T05:56:21;10.10;91.60
70366;DHT22;57787;48.216;12.396;2022-10-13T05:58:58;10.20;91.70
70366;DHT22;57787;48.216;12.396;2022-10-13T06:01:26;10.20;91.70
70366;DHT22;57787;48.216;12.396;2022-10-13T06:03:57;10.20;91.50
70366;DHT22;57787;48.216;12.396;2022-10-13T06:06:25;10.30;91.40
70366;DHT22;57787;48.216;12.396;2022-10-13T06:08:58;10.30;91.20
70366;DHT22;57787;48.216;12.396;2022-10-13T06:11:25;10.30;91.40
70366;DHT22;57787;48.216;12.396;2022-10-13T06:13:52;10.40;91.10
70366;DHT22;57787;48.216;12.396;2022-10-13T06:16:19;10.40;91.20
70366;DHT22;57787;48.216;12.396;2022-10-13T06:18:46;10.50;90.80
70366;DHT22;57787;48.216;12.396;2022-10-13T06:21:12;10.50;90.50
70366;DHT22;57787;48.216;12.396;2022-10-13T06:23:39;10.50;90.70
70366;DHT22;57787;48.216;12.396;2022-10-13T06:26:07;10.60;90.90
70366;DHT22;57787;48.216;12.396;2022-10-13T06:28:37;10.60;90.90
70366;DHT22;57787;48.216;12.396;2022-10-13T06:31:04;10.60;90.70
70366;DHT22;57787;48.216;12.396;2022-10-13T06:33:32;10.70;90.70
70366;DHT22;57787;48.216;12.396;2022-10-13T06:36:04;10.70;90.80
70366;DHT22;57787;48.216;12.396;2022-10-13T06:38:31;10.80;90.80
70366;DHT22;57787;48.216;12.396;2022-10-13T06:41:00;10.90;90.80
70366;DHT22;57787;48.216;12.396;2022-10-13T06:43:27;11.00;90.90
70366;DHT22;57787;48.216;12.396;2022-10-13T06:46:05;11.00;90.90
70366;DHT22;57787;48.216;12.396;2022-10-13T06:48:32;11.10;90.80
70366;DHT22;57787;48.216;12.396;2022-10-13T06:51:06;11.20;90.80
70366;DHT22;57787;48.216;12.396;2022-10-13T06:53:33;11.30;90.80
70366;DHT22;57787;48.216;12.396;2022-10-13T06:56:00;11.30;90.60
70366;DHT22;57787;48.216;12.396;2022-10-13T06:58:27;11.40;90.60
70366;DHT22;57787;48.216;12.396;2022-10-13T07:00:56;11.50;90.50
70366;DHT22;57787;48.216;12.396;2022-10-13T07:03:23;11.60;90.30
70366;DHT22;57787;48.216;12.396;2022-10-13T07:05:51;11.60;90.00
70366;DHT22;57787;48.216;12.396;2022-10-13T07:08:18;11.70;90.00
70366;DHT22;57787;48.216;12.396;2022-10-13T07:10:48;11.70;89.60
70366;DHT22;57787;48.216;12.396;2022-10-13T07:13:15;11.80;89.60
70366;DHT22;57787;48.216;12.396;2022-10-13T07:15:41;11.90;89.50
70366;DHT22;57787;48.216;12.396;2022-10-13T07:18:08;11.90;89.40
70366;DHT22;57787;48.216;12.396;2022-10-13T07:20:41;12.00;89.20
70366;DHT22;57787;48.216;12.396;2022-10-13T07:23:07;12.00;88.80
70366;DHT22;57787;48.216;12.396;2022-10-13T07:25:34;12.00;88.90
70366;DHT22;57787;48.216;12.396;2022-10-13T07:28:01;12.10;88.70
70366;DHT22;57787;48.216;12.396;2022-10-13T07:30:27;12.20;88.70
70366;DHT22;57787;48.216;12.396;2022-10-13T07:32:54;12.20;88.70
70366;DHT22;57787;48.216;12.396;2022-10-13T07:35:21;12.30;88.60
70366;DHT22;57787;48.216;12.396;2022-10-13T07:37:56;12.30;88.60
70366;DHT22;57787;48.216;12.396;2022-10-13T07:42:55;12.40;88.30
70366;DHT22;57787;48.216;12.396;2022-10-13T07:45:21;12.40;88.10
70366;DHT22;57787;48.216;12.396;2022-10-13T07:47:48;12.50;88.00
70366;DHT22;57787;48.216;12.396;2022-10-13T07:50:15;12.50;87.60
70366;DHT22;57787;48.216;12.396;2022-10-13T07:52:42;12.50;87.20
70366;DHT22;57787;48.216;12.396;2022-10-13T07:55:09;12.50;86.70
70366;DHT22;57787;48.216;12.396;2022-10-13T07:57:36;12.60;86.70
70366;DHT22;57787;48.216;12.396;2022-10-13T08:00:03;12.60;86.60
70366;DHT22;57787;48.216;12.396;2022-10-13T08:02:31;12.60;86.70
70366;DHT22;57787;48.216;12.396;2022-10-13T08:04:58;12.70;86.50
70366;DHT22;57787;48.216;12.396;2022-10-13T08:07:25;12.70;86.60
70366;DHT22;57787;48.216;12.396;2022-10-13T08:09:51;12.80;86.40
70366;DHT22;57787;48.216;12.396;2022-10-13T08:12:18;12.80;86.20
70366;DHT22;57787;48.216;12.396;2022-10-13T08:14:45;12.80;86.10
70366;DHT22;57787;48.216;12.396;2022-10-13T08:17:20;12.90;86.10
70366;DHT22;57787;48.216;12.396;2022-10-13T08:19:49;12.90;85.40
70366;DHT22;57787;48.216;12.396;2022-10-13T08:22:16;13.00;85.60
70366;DHT22;57787;48.216;12.396;2022-10-13T08:24:42;13.00;85.10
70366;DHT22;57787;48.216;12.396;2022-10-13T08:27:13;13.00;85.40
70366;DHT22;57787;48.216;12.396;2022-10-13T08:29:42;13.10;85.30
70366;DHT22;57787;48.216;12.396;2022-10-13T08:32:09;13.10;85.10
70366;DHT22;57787;48.216;12.396;2022-10-13T08:34:38;13.10;84.60
70366;DHT22;57787;48.216;12.396;2022-10-13T08:37:11;13.20;84.60
70366;DHT22;57787;48.216;12.396;2022-10-13T08:39:38;13.20;84.10
70366;DHT22;57787;48.216;12.396;2022-10-13T08:42:15;13.30;84.30
70366;DHT22;57787;48.216;12.396;2022-10-13T08:44:48;13.30;84.50
70366;DHT22;57787;48.216;12.396;2022-10-13T08:47:43;13.40;84.30
70366;DHT22;57787;48.216;12.396;2022-10-13T08:50:12;13.60;84.00
70366;DHT22;57787;48.216;12.396;2022-10-13T08:55:32;13.70;83.50
70366;DHT22;57787;48.216;12.396;2022-10-13T08:58:01;13.80;83.40
70366;DHT22;57787;48.216;12.396;2022-10-13T09:00:32;13.80;83.10
70366;DHT22;57787;48.216;12.396;2022-10-13T09:03:01;13.90;82.80
70366;DHT22;57787;48.216;12.396;2022-10-13T09:05:42;13.90;82.60
70366;DHT22;57787;48.216;12.396;2022-10-13T09:08:20;14.00;82.40
70366;DHT22;57787;48.216;12.396;2022-10-13T09:13:19;14.20;82.10
70366;DHT22;57787;48.216;12.396;2022-10-13T09:15:58;14.30;81.90
70366;DHT22;57787;48.216;12.396;2022-10-13T09:18:29;14.40;81.50
70366;DHT22;57787;48.216;12.396;2022-10-13T09:23:43;14.70;80.90
70366;DHT22;57787;48.216;12.396;2022-10-13T09:26:15;14.80;80.90
70366;DHT22;57787;48.216;12.396;2022-10-13T09:28:43;14.90;80.20
70366;DHT22;57787;48.216;12.396;2022-10-13T09:31:14;15.00;80.00
70366;DHT22;57787;48.216;12.396;2022-10-13T09:33:43;15.20;79.80
70366;DHT22;57787;48.216;12.396;2022-10-13T09:36:15;15.20;78.90
70366;DHT22;57787;48.216;12.396;2022-10-13T09:38:43;15.20;78.40
70366;DHT22;57787;48.216;12.396;2022-10-13T09:41:15;15.30;78.80
70366;DHT22;57787;48.216;12.396;2022-10-13T09:46:23;15.40;78.30
70366;DHT22;57787;48.216;12.396;2022-10-13T09:48:57;15.50;78.50
70366;DHT22;57787;48.216;12.396;2022-10-13T09:51:27;15.60;78.70
70366;DHT22;57787;48.216;12.396;2022-10-13T09:53:57;15.70;77.90
70366;DHT22;57787;48.216;12.396;2022-10-13T09:59:04;16.00;77.30
70366;DHT22;57787;48.216;12.396;2022-10-13T10:01:34;16.10;76.80
70366;DHT22;57787;48.216;12.396;2022-10-13T10:04:03;16.30;76.80
70366;DHT22;57787;48.216;12.396;2022-10-13T10:06:31;16.40;76.00
70366;DHT22;57787;48.216;12.396;2022-10-13T10:09:02;16.70;75.90
70366;DHT22;57787;48.216;12.396;2022-10-13T10:16:47;17.10;75.00
70366;DHT22;57787;48.216;12.396;2022-10-13T10:19:17;17.20;74.10
70366;DHT22;57787;48.216;12.396;2022-10-13T10:27:04;17.50;72.40
70366;DHT22;57787;48.216;12.396;2022-10-13T10:29:51;17.60;72.70
70366;DHT22;57787;48.216;12.396;2022-10-13T10:32:31;17.70;72.30
70366;DHT22;57787;48.216;12.396;2022-10-13T10:45:03;17.80;70.60
70366;DHT22;57787;48.216;12.396;2022-10-13T10:47:43;17.70;69.60
70366;DHT22;57787;48.216;12.396;2022-10-13T10:50:15;17.70;70.50
70366;DHT22;57787;48.216;12.396;2022-10-13T10:58:19;17.80;70.60
70366;DHT22;57787;48.216;12.396;2022-10-13T11:04:20;18.00;71.00
70366;DHT22;57787;48.216;12.396;2022-10-13T11:06:32;17.90;68.80
70366;DHT22;57787;48.216;12.396;2022-10-13T11:08:59;17.90;69.70
70366;DHT22;57787;48.216;12.396;2022-10-13T11:42:58;18.00;65.60
70366;DHT22;57787;48.216;12.396;2022-10-13T11:51:26;17.90;67.30
70366;DHT22;57787;48.216;12.396;2022-10-13T11:56:30;18.00;67.10
70366;DHT22;57787;48.216;12.396;2022-10-13T11:58:58;18.10;67.10
70366;DHT22;57787;48.216;12.396;2022-10-13T12:01:26;18.20;67.10
70366;DHT22;57787;48.216;12.396;2022-10-13T12:03:53;18.30;66.10
70366;DHT22;57787;48.216;12.396;2022-10-13T12:08:49;18.40;65.70
70366;DHT22;57787;48.216;12.396;2022-10-13T12:11:23;18.40;66.00
70366;DHT22;57787;48.216;12.396;2022-10-13T12:13:51;18.40;66.30
70366;DHT22;57787;48.216;12.396;2022-10-13T12:16:18;18.40;65.40
70366;DHT22;57787;48.216;12.396;2022-10-13T12:18:47;18.50;66.50
70366;DHT22;57787;48.216;12.396;2022-10-13T12:21:19;18.60;66.60
70366;DHT22;57787;48.216;12.396;2022-10-13T12:23:48;18.60;67.20
70366;DHT22;57787;48.216;12.396;2022-10-13T12:26:16;18.60;65.50
70366;DHT22;57787;48.216;12.396;2022-10-13T12:29:02;18.80;66.30
70366;DHT22;57787;48.216;12.396;2022-10-13T12:31:40;18.80;65.10
70366;DHT22;57787;48.216;12.396;2022-10-13T12:34:24;18.80;65.00
70366;DHT22;57787;48.216;12.396;2022-10-13T12:37:02;18.90;65.70
70366;DHT22;57787;48.216;12.396;2022-10-13T12:39:34;18.90;65.30
70366;DHT22;57787;48.216;12.396;2022-10-13T12:42:02;19.00;65.40
70366;DHT22;57787;48.216;12.396;2022-10-13T12:44:30;19.00;65.80
70366;DHT22;57787;48.216;12.396;2022-10-13T12:47:00;19.10;65.20
70366;DHT22;57787;48.216;12.396;2022-10-13T12:49:33;19.00;64.70
70366;DHT22;57787;48.216;12.396;2022-10-13T12:52:15;19.00;65.40
70366;DHT22;57787;48.216;12.396;2022-10-13T12:57:18;19.20;64.90
70366;DHT22;57787;48.216;12.396;2022-10-13T12:59:46;19.30;64.20
70366;DHT22;57787;48.216;12.396;2022-10-13T13:05:27;19.30;64.40
70366;DHT22;57787;48.216;12.396;2022-10-13T13:07:51;19.30;63.70
70366;DHT22;57787;48.216;12.396;2022-10-13T13:10:18;19.30;63.80
70366;DHT22;57787;48.216;12.396;2022-10-13T13:12:46;19.20;64.20
70366;DHT22;57787;48.216;12.396;2022-10-13T13:15:29;19.10;63.00
70366;DHT22;57787;48.216;12.396;2022-10-13T13:18:21;19.00;64.60
70366;DHT22;57787;48.216;12.396;2022-10-13T13:20:43;19.00;63.00
70366;DHT22;57787;48.216;12.396;2022-10-13T13:23:10;18.90;64.40
70366;DHT22;57787;48.216;12.396;2022-10-13T13:25:37;18.90;64.10
70366;DHT22;57787;48.216;12.396;2022-10-13T13:28:09;18.80;64.80
70366;DHT22;57787;48.216;12.396;2022-10-13T13:30:35;18.80;64.80
70366;DHT22;57787;48.216;12.396;2022-10-13T13:33:02;18.70;64.10
70366;DHT22;57787;48.216;12.396;2022-10-13T13:35:29;18.60;65.80
70366;DHT22;57787;48.216;12.396;2022-10-13T13:37:57;18.60;65.20
70366;DHT22;57787;48.216;12.396;2022-10-13T13:40:25;18.60;65.40
70366;DHT22;57787;48.216;12.396;2022-10-13T13:42:52;18.40;63.30
70366;DHT22;57787;48.216;12.396;2022-10-13T13:45:20;18.40;65.60
70366;DHT22;57787;48.216;12.396;2022-10-13T13:47:47;18.40;65.50
70366;DHT22;57787;48.216;12.396;2022-10-13T13:53:01;18.30;66.20
70366;DHT22;57787;48.216;12.396;2022-10-13T13:55:28;18.40;67.00
70366;DHT22;57787;48.216;12.396;2022-10-13T13:57:55;18.30;64.50
70366;DHT22;57787;48.216;12.396;2022-10-13T14:00:22;18.30;65.80
70366;DHT22;57787;48.216;12.396;2022-10-13T14:02:49;18.30;66.70
70366;DHT22;57787;48.216;12.396;2022-10-13T14:05:16;18.30;65.80
70366;DHT22;57787;48.216;12.396;2022-10-13T14:07:51;18.20;65.90
70366;DHT22;57787;48.216;12.396;2022-10-13T14:10:18;18.30;67.40
70366;DHT22;57787;48.216;12.396;2022-10-13T14:12:45;18.20;66.00
70366;DHT22;57787;48.216;12.396;2022-10-13T14:15:13;18.20;67.10
70366;DHT22;57787;48.216;12.396;2022-10-13T14:17:39;18.20;67.60
70366;DHT22;57787;48.216;12.396;2022-10-13T14:20:06;18.20;65.60
70366;DHT22;57787;48.216;12.396;2022-10-13T14:22:35;18.10;66.60
70366;DHT22;57787;48.216;12.396;2022-10-13T14:25:02;18.10;65.80
70366;DHT22;57787;48.216;12.396;2022-10-13T14:27:32;18.00;67.20
70366;DHT22;57787;48.216;12.396;2022-10-13T14:29:58;18.00;66.90
70366;DHT22;57787;48.216;12.396;2022-10-13T14:32:28;18.00;67.90
70366;DHT22;57787;48.216;12.396;2022-10-13T14:34:54;17.90;66.20
70366;DHT22;57787;48.216;12.396;2022-10-13T14:37:21;17.90;68.00
70366;DHT22;57787;48.216;12.396;2022-10-13T14:39:50;17.80;67.50
70366;DHT22;57787;48.216;12.396;2022-10-13T14:42:17;17.80;67.90
70366;DHT22;57787;48.216;12.396;2022-10-13T14:44:44;17.80;68.00
70366;DHT22;57787;48.216;12.396;2022-10-13T14:47:11;17.70;67.30
70366;DHT22;57787;48.216;12.396;2022-10-13T14:49:38;17.70;68.10
70366;DHT22;57787;48.216;12.396;2022-10-13T14:52:04;17.60;68.30
70366;DHT22;57787;48.216;12.396;2022-10-13T14:54:31;17.60;68.20
70366;DHT22;57787;48.216;12.396;2022-10-13T14:56:59;17.50;68.30
70366;DHT22;57787;48.216;12.396;2022-10-13T14:59:30;17.50;68.60
70366;DHT22;57787;48.216;12.396;2022-10-13T15:01:57;17.40;68.20
70366;DHT22;57787;48.216;12.396;2022-10-13T15:04:26;17.30;71.20
70366;DHT22;57787;48.216;12.396;2022-10-13T15:06:54;17.20;70.60
70366;DHT22;57787;48.216;12.396;2022-10-13T15:09:21;17.20;70.40
70366;DHT22;57787;48.216;12.396;2022-10-13T15:12:10;17.10;71.50
70366;DHT22;57787;48.216;12.396;2022-10-13T15:14:36;17.00;72.40
70366;DHT22;57787;48.216;12.396;2022-10-13T15:17:03;16.90;72.10
70366;DHT22;57787;48.216;12.396;2022-10-13T15:19:30;16.80;73.00
70366;DHT22;57787;48.216;12.396;2022-10-13T15:21:56;16.70;73.60
70366;DHT22;57787;48.216;12.396;2022-10-13T15:24:23;16.60;73.70
70366;DHT22;57787;48.216;12.396;2022-10-13T15:26:50;16.50;74.50
70366;DHT22;57787;48.216;12.396;2022-10-13T15:29:19;16.40;74.10
70366;DHT22;57787;48.216;12.396;2022-10-13T15:31:46;16.40;74.30
70366;DHT22;57787;48.216;12.396;2022-10-13T15:34:12;16.30;74.80
70366;DHT22;57787;48.216;12.396;2022-10-13T15:36:39;16.20;75.10
70366;DHT22;57787;48.216;12.396;2022-10-13T15:39:08;16.10;75.40
70366;DHT22;57787;48.216;12.396;2022-10-13T15:41:41;16.00;75.60
70366;DHT22;57787;48.216;12.396;2022-10-13T15:44:08;16.00;76.10
70366;DHT22;57787;48.216;12.396;2022-10-13T15:46:41;15.90;75.70
70366;DHT22;57787;48.216;12.396;2022-10-13T15:49:31;15.80;76.00
70366;DHT22;57787;48.216;12.396;2022-10-13T15:52:00;15.70;76.80
70366;DHT22;57787;48.216;12.396;2022-10-13T15:54:27;15.60;76.60
70366;DHT22;57787;48.216;12.396;2022-10-13T15:56:54;15.50;76.70
70366;DHT22;57787;48.216;12.396;2022-10-13T15:59:21;15.40;77.40
70366;DHT22;57787;48.216;12.396;2022-10-13T16:01:51;15.40;78.10
70366;DHT22;57787;48.216;12.396;2022-10-13T16:04:18;15.30;78.10
70366;DHT22;57787;48.216;12.396;2022-10-13T16:06:44;15.20;78.50
70366;DHT22;57787;48.216;12.396;2022-10-13T16:09:11;15.20;78.30
70366;DHT22;57787;48.216;12.396;2022-10-13T16:11:38;15.10;78.50
70366;DHT22;57787;48.216;12.396;2022-10-13T16:14:05;15.00;79.70
70366;DHT22;57787;48.216;12.396;2022-10-13T16:16:32;14.90;80.10
70366;DHT22;57787;48.216;12.396;2022-10-13T16:18:59;14.80;80.80
70366;DHT22;57787;48.216;12.396;2022-10-13T16:21:25;14.80;80.90
70366;DHT22;57787;48.216;12.396;2022-10-13T16:23:53;14.70;81.70
70366;DHT22;57787;48.216;12.396;2022-10-13T16:26:19;14.70;81.80
70366;DHT22;57787;48.216;12.396;2022-10-13T16:28:46;14.60;80.30
70366;DHT22;57787;48.216;12.396;2022-10-13T16:31:14;14.60;81.10
70366;DHT22;57787;48.216;12.396;2022-10-13T16:33:41;14.50;80.60
70366;DHT22;57787;48.216;12.396;2022-10-13T16:36:09;14.40;81.30
70366;DHT22;57787;48.216;12.396;2022-10-13T16:38:38;14.30;81.30
70366;DHT22;57787;48.216;12.396;2022-10-13T16:41:05;14.30;81.10
70366;DHT22;57787;48.216;12.396;2022-10-13T16:43:35;14.10;82.10
70366;DHT22;57787;48.216;12.396;2022-10-13T16:46:02;14.00;82.30
70366;DHT22;57787;48.216;12.396;2022-10-13T16:48:30;14.00;82.00
70366;DHT22;57787;48.216;12.396;2022-10-13T16:51:03;13.90;81.50
70366;DHT22;57787;48.216;12.396;2022-10-13T16:53:31;13.80;82.00
70366;DHT22;57787;48.216;12.396;2022-10-13T16:55:59;13.70;82.50
70366;DHT22;57787;48.216;12.396;2022-10-13T16:58:25;13.60;82.30
70366;DHT22;57787;48.216;12.396;2022-10-13T17:00:52;13.50;82.40
70366;DHT22;57787;48.216;12.396;2022-10-13T17:03:20;13.40;82.90
70366;DHT22;57787;48.216;12.396;2022-10-13T17:05:50;13.30;82.90
70366;DHT22;57787;48.216;12.396;2022-10-13T17:08:16;13.20;83.10
70366;DHT22;57787;48.216;12.396;2022-10-13T17:10:46;13.20;82.80
70366;DHT22;57787;48.216;12.396;2022-10-13T17:13:22;13.10;82.60
70366;DHT22;57787;48.216;12.396;2022-10-13T17:15:53;13.00;83.00
70366;DHT22;57787;48.216;12.396;2022-10-13T17:18:22;12.90;83.10
70366;DHT22;57787;48.216;12.396;2022-10-13T17:20:56;12.80;83.00
70366;DHT22;57787;48.216;12.396;2022-10-13T17:23:23;12.80;83.00
70366;DHT22;57787;48.216;12.396;2022-10-13T17:25:50;12.70;83.60
70366;DHT22;57787;48.216;12.396;2022-10-13T17:28:17;12.60;83.70
70366;DHT22;57787;48.216;12.396;2022-10-13T17:30:44;12.50;84.20